createdAt,value
2023-04-22T00:02:23.487Z,100776.13
2023-04-22T00:05:26.086Z,100774.31
2023-04-22T00:08:28.632Z,100770.16
2023-04-22T00:11:31.639Z,100757.75
2023-04-22T00:14:34.021Z,100762.16
2023-04-22T00:17:36.544Z,100750.66
2023-04-22T00:20:39.358Z,100761.66
2023-04-22T00:23:41.930Z,100752.63
2023-04-22T00:26:44.232Z,100746.63
2023-04-22T00:29:46.502Z,100740.22
2023-04-22T00:32:49.271Z,100746.31
2023-04-22T00:35:51.923Z,100742.81
2023-04-22T00:38:54.396Z,100743.22
2023-04-22T00:41:56.868Z,100743.22
2023-04-22T00:44:59.440Z,100742.94
2023-04-22T00:48:02.318Z,100742.28
2023-04-22T00:51:05.493Z,100743.31
2023-04-22T00:54:07.831Z,100742.31
2023-04-22T00:57:10.317Z,100723.22
2023-04-22T01:00:12.840Z,100740.63
2023-04-22T01:03:16.326Z,100738.44
2023-04-22T01:06:23.049Z,100732.25
2023-04-22T01:09:25.408Z,100735.19
2023-04-22T01:12:27.701Z,100735.56
2023-04-22T01:15:30.170Z,100720.72
2023-04-22T01:18:33.156Z,100737.28
2023-04-22T01:21:36.303Z,100729.00
2023-04-22T01:24:38.786Z,100736.06
2023-04-22T01:27:41.586Z,100724.09
2023-04-22T01:30:44.346Z,100730.28
2023-04-22T01:33:48.430Z,100725.34
2023-04-22T01:36:50.990Z,100726.56
2023-04-22T01:39:53.339Z,100733.41
2023-04-22T01:42:55.968Z,100735.28
2023-04-22T01:45:58.928Z,100733.00
2023-04-22T01:49:01.224Z,100731.59
2023-04-22T01:52:03.568Z,100727.84
2023-04-22T01:55:07.343Z,100726.84
2023-04-22T01:58:09.723Z,100724.91
2023-04-22T02:01:13.351Z,100708.06
2023-04-22T02:04:15.887Z,100735.16
2023-04-22T02:07:18.283Z,100715.31
2023-04-22T02:10:21.100Z,100726.50
2023-04-22T02:13:23.546Z,100719.97
2023-04-22T02:16:25.904Z,100729.28
2023-04-22T02:19:28.832Z,100670.19
2023-04-22T02:22:31.907Z,100713.75
2023-04-22T02:25:34.429Z,100718.88
2023-04-22T02:28:36.780Z,100705.66
2023-04-22T02:31:39.237Z,100708.22
2023-04-22T02:34:41.794Z,100708.22
2023-04-22T02:37:44.231Z,100714.59
2023-04-22T02:40:46.662Z,100703.06
2023-04-22T02:43:49.707Z,100715.84
2023-04-22T02:46:52.082Z,100715.47
2023-04-22T02:49:54.454Z,100725.41
2023-04-22T02:52:57.070Z,100711.13
2023-04-22T02:55:59.494Z,100716.50
2023-04-22T02:59:01.957Z,100712.56
2023-04-22T03:02:06.697Z,100711.91
2023-04-22T03:05:27.974Z,100715.25
2023-04-22T03:08:30.460Z,100710.31
2023-04-22T03:11:32.925Z,100716.47
2023-04-22T03:14:35.413Z,100714.44
2023-04-22T03:17:37.739Z,100728.09
2023-04-22T03:20:44.572Z,100725.66
2023-04-22T03:23:46.937Z,100714.69
2023-04-22T03:26:49.478Z,100726.66
2023-04-22T03:29:51.765Z,100714.44
2023-04-22T03:32:54.287Z,100726.84
2023-04-22T03:36:06.158Z,100711.72
2023-04-22T03:39:08.501Z,100717.72
2023-04-22T03:42:11.853Z,100717.28
2023-04-22T03:45:22.156Z,100717.72
2023-04-22T03:48:40.626Z,100708.56
2023-04-22T03:51:53.547Z,100720.50
2023-04-22T03:54:59.161Z,100729.25
2023-04-22T03:58:01.953Z,100723.72
2023-04-22T04:01:05.323Z,100721.06
2023-04-22T04:04:08.175Z,100708.22
2023-04-22T04:07:16.885Z,100714.63
2023-04-22T04:10:19.366Z,100720.03
2023-04-22T04:13:23.219Z,100712.19
2023-04-22T04:16:45.680Z,100701.56
2023-04-22T04:19:54.363Z,100711.66
2023-04-22T04:22:57.753Z,100713.69
2023-04-22T04:26:03.058Z,100714.06
2023-04-22T04:29:06.405Z,100718.91
2023-04-22T04:32:10.138Z,100715.03
2023-04-22T04:35:16.175Z,100718.97
2023-04-22T04:38:23.137Z,100712.22
2023-04-22T04:41:28.330Z,100710.69
2023-04-22T04:44:31.997Z,100714.28
2023-04-22T04:47:37.492Z,100708.56
2023-04-22T04:50:50.496Z,100710.75
2023-04-22T04:53:53.107Z,100709.06
2023-04-22T04:56:57.391Z,100698.47
2023-04-22T05:00:01.704Z,100712.38
2023-04-22T05:03:04.390Z,100709.63
2023-04-22T05:06:08.492Z,100704.97
2023-04-22T05:09:12.906Z,100709.16
2023-04-22T05:12:16.631Z,100704.94
2023-04-22T05:15:19.288Z,100708.91
2023-04-22T05:18:22.836Z,100702.69
2023-04-22T05:21:25.360Z,100708.06
2023-04-22T05:24:27.852Z,100700.03
2023-04-22T05:27:31.827Z,100705.81
2023-04-22T05:30:35.087Z,100704.44
2023-04-22T05:33:37.381Z,100708.09
2023-04-22T05:36:41.076Z,100703.16
2023-04-22T05:39:45.034Z,100705.38
2023-04-22T05:42:47.538Z,100696.94
2023-04-22T05:45:50.180Z,100693.56
2023-04-22T05:48:55.451Z,100698.00
2023-04-22T05:52:16.779Z,100704.44
2023-04-22T05:55:30.678Z,100708.44
2023-04-22T05:58:33.242Z,100706.38
2023-04-22T06:01:42.172Z,100701.69
2023-04-22T06:04:46.038Z,100692.66
2023-04-22T06:07:49.121Z,100691.72
2023-04-22T06:10:51.512Z,100699.75
2023-04-22T06:13:54.188Z,100682.16
2023-04-22T06:16:56.884Z,100692.22
2023-04-22T06:19:59.299Z,100685.25
2023-04-22T06:23:02.085Z,100695.47
2023-04-22T06:26:05.084Z,100684.59
2023-04-22T06:29:08.422Z,100681.94
2023-04-22T06:32:13.486Z,100671.22
2023-04-22T06:35:17.886Z,100691.06
2023-04-22T06:38:20.650Z,100680.81
2023-04-22T06:41:44.478Z,100687.25
2023-04-22T06:45:05.593Z,100683.41
2023-04-22T06:48:14.609Z,100681.78
2023-04-22T06:51:39.718Z,100680.50
2023-04-22T06:54:42.841Z,100685.44
2023-04-22T06:57:45.390Z,100682.69
2023-04-22T07:00:48.503Z,100680.28
2023-04-22T07:03:51.180Z,100689.78
2023-04-22T07:06:55.508Z,100679.00
2023-04-22T07:09:58.158Z,100686.75
2023-04-22T07:13:05.459Z,100679.38
2023-04-22T07:16:07.928Z,100677.47
2023-04-22T07:19:10.445Z,100686.59
2023-04-22T07:22:12.865Z,100679.97
2023-04-22T07:25:15.769Z,100681.03
2023-04-22T07:28:18.462Z,100672.13
2023-04-22T07:31:20.931Z,100667.53
2023-04-22T07:34:23.298Z,100681.16
2023-04-22T07:37:25.968Z,100678.13
2023-04-22T07:40:28.386Z,100675.53
2023-04-22T07:43:30.969Z,100682.22
2023-04-22T07:46:33.337Z,100678.91
2023-04-22T07:49:35.703Z,100675.00
2023-04-22T07:52:38.126Z,100676.75
2023-04-22T07:55:40.437Z,100677.28
2023-04-22T07:58:43.128Z,100675.69
2023-04-22T08:01:46.720Z,100679.56
2023-04-22T08:04:49.195Z,100682.84
2023-04-22T08:07:51.638Z,100673.63
2023-04-22T08:10:54.550Z,100682.84
2023-04-22T08:13:56.922Z,100665.16
2023-04-22T08:16:59.206Z,100674.72
2023-04-22T08:20:01.617Z,100679.53
2023-04-22T08:23:03.982Z,100674.31
2023-04-22T08:26:08.347Z,100678.66
2023-04-22T08:29:10.520Z,100679.31
2023-04-22T08:32:12.814Z,100668.06
2023-04-22T08:35:15.181Z,100669.47
2023-04-22T08:38:17.454Z,100673.97
2023-04-22T08:41:19.910Z,100678.78
2023-04-22T08:44:23.310Z,100671.22
2023-04-22T08:47:26.684Z,100673.03
2023-04-22T08:50:30.211Z,100674.75
2023-04-22T08:53:32.684Z,100684.31
2023-04-22T08:56:35.810Z,100673.72
2023-04-22T08:59:39.289Z,100676.81
2023-04-22T09:02:45.227Z,100680.09
2023-04-22T09:05:48.228Z,100665.22
2023-04-22T09:08:50.848Z,100672.66
2023-04-22T09:11:53.163Z,100667.16
2023-04-22T09:14:55.924Z,100654.63
2023-04-22T09:17:58.776Z,100650.06
2023-04-22T09:21:01.241Z,100657.59
2023-04-22T09:24:03.966Z,100656.25
2023-04-22T09:27:06.339Z,100656.25
2023-04-22T09:30:10.140Z,100651.06
2023-04-22T09:33:13.975Z,100651.34
2023-04-22T09:36:16.290Z,100641.63
2023-04-22T09:39:18.519Z,100644.06
2023-04-22T09:42:22.085Z,100635.91
2023-04-22T09:45:38.931Z,100635.88
2023-04-22T09:48:45.478Z,100638.41
2023-04-22T09:51:49.787Z,100623.19
2023-04-22T09:54:52.283Z,100623.00
2023-04-22T09:57:55.899Z,100615.50
2023-04-22T10:00:59.651Z,100618.25
2023-04-22T10:04:02.064Z,100607.06
2023-04-22T10:07:04.626Z,100614.56
2023-04-22T10:10:10.155Z,100609.06
2023-04-22T10:13:12.656Z,100607.69
2023-04-22T10:16:15.486Z,100595.59
2023-04-22T10:19:22.295Z,100599.81
2023-04-22T10:22:24.730Z,100602.28
2023-04-22T10:25:27.878Z,100596.81
2023-04-22T10:28:30.887Z,100590.13
2023-04-22T10:31:33.275Z,100594.06
2023-04-22T10:34:39.062Z,100582.38
2023-04-22T10:37:42.808Z,100584.06
2023-04-22T10:41:00.940Z,100584.59
2023-04-22T10:44:07.584Z,100590.47
2023-04-22T10:47:10.133Z,100584.94
2023-04-22T10:50:18.174Z,100588.06
2023-04-22T10:53:37.842Z,100585.59
2023-04-22T10:57:02.298Z,100573.38
2023-04-22T11:00:17.879Z,100578.13
2023-04-22T11:03:26.938Z,100561.34
2023-04-22T11:06:30.478Z,100568.28
2023-04-22T11:09:32.844Z,100567.84
2023-04-22T11:12:43.906Z,100574.00
2023-04-22T11:15:51.297Z,100568.97
2023-04-22T11:18:53.748Z,100567.66
2023-04-22T11:21:56.318Z,100563.56
2023-04-22T11:25:01.121Z,100557.88
2023-04-22T11:28:03.971Z,100553.84
2023-04-22T11:31:10.017Z,100553.53
2023-04-22T11:34:13.107Z,100548.19
2023-04-22T11:37:19.953Z,100551.19
2023-04-22T11:40:46.161Z,100547.34
2023-04-22T11:43:49.684Z,100548.81
2023-04-22T11:46:51.966Z,100541.22
2023-04-22T11:50:09.476Z,100533.09
2023-04-22T11:53:16.170Z,100533.91
2023-04-22T11:56:18.588Z,100533.38
2023-04-22T11:59:20.893Z,100534.16
2023-04-22T12:02:24.813Z,100533.06
2023-04-22T12:05:57.655Z,100530.34
2023-04-22T12:09:01.206Z,100522.72
2023-04-22T12:12:06.516Z,100524.28
2023-04-22T12:15:13.750Z,100521.94
2023-04-22T12:18:16.249Z,100515.56
2023-04-22T12:21:23.903Z,100518.44
2023-04-22T12:24:29.994Z,100511.00
2023-04-22T12:27:32.420Z,100513.38
2023-04-22T12:30:34.816Z,100516.63
2023-04-22T12:33:38.602Z,100499.50
2023-04-22T12:36:41.323Z,100509.19
2023-04-22T12:39:43.797Z,100508.13
2023-04-22T12:42:46.110Z,100501.53
2023-04-22T12:45:48.482Z,100500.44
2023-04-22T12:48:51.712Z,100503.50
2023-04-22T12:51:54.246Z,100500.09
2023-04-22T12:54:56.604Z,100494.75
2023-04-22T12:57:59.100Z,100491.56
2023-04-22T13:01:01.453Z,100489.19
2023-04-22T13:04:03.864Z,100480.38
2023-04-22T13:07:06.330Z,100471.97
2023-04-22T13:10:10.765Z,100473.84
2023-04-22T13:13:17.542Z,100471.75
2023-04-22T13:16:21.489Z,100470.81
2023-04-22T13:19:25.896Z,100449.53
2023-04-22T13:22:28.288Z,100461.88
2023-04-22T13:25:30.788Z,100463.84
2023-04-22T13:28:33.181Z,100463.53
2023-04-22T13:31:35.521Z,100454.66
2023-04-22T13:34:39.659Z,100452.13
2023-04-22T13:37:42.007Z,100459.53
2023-04-22T13:40:44.531Z,100443.28
2023-04-22T13:43:46.930Z,100450.81
2023-04-22T13:46:49.523Z,100446.00
2023-04-22T13:49:51.832Z,100446.09
2023-04-22T13:52:54.458Z,100436.75
2023-04-22T13:55:56.867Z,100434.28
2023-04-22T13:58:59.638Z,100433.56
2023-04-22T14:02:02.006Z,100432.47
2023-04-22T14:05:05.463Z,100436.38
2023-04-22T14:08:07.765Z,100431.09
2023-04-22T14:11:10.474Z,100428.69
2023-04-22T14:14:12.801Z,100428.63
2023-04-22T14:17:15.118Z,100423.75
2023-04-22T14:20:17.643Z,100421.03
2023-04-22T14:23:20.126Z,100411.91
2023-04-22T14:26:22.449Z,100413.78
2023-04-22T14:29:25.149Z,100415.50
2023-04-22T14:32:27.995Z,100411.56
2023-04-22T14:35:30.400Z,100392.75
2023-04-22T14:38:32.848Z,100401.00
2023-04-22T14:41:35.562Z,100401.44
2023-04-22T14:44:38.010Z,100404.44
2023-04-22T14:47:40.387Z,100402.47
2023-04-22T14:50:43.787Z,100399.97
2023-04-22T14:53:46.431Z,100387.50
2023-04-22T14:56:48.758Z,100388.91
2023-04-22T14:59:51.158Z,100390.94
2023-04-22T15:02:55.140Z,100390.41
2023-04-22T15:05:58.137Z,100373.59
2023-04-22T15:09:00.641Z,100378.81
2023-04-22T15:12:05.983Z,100372.84
2023-04-22T15:15:08.832Z,100365.81
2023-04-22T15:18:11.744Z,100366.00
2023-04-22T15:21:14.052Z,100367.56
2023-04-22T15:24:16.444Z,100357.94
2023-04-22T15:27:19.469Z,100365.72
2023-04-22T15:30:21.944Z,100360.03
2023-04-22T15:33:24.321Z,100368.91
2023-04-22T15:36:26.780Z,100369.19
2023-04-22T15:39:29.114Z,100356.63
2023-04-22T15:42:31.396Z,100360.41
2023-04-22T15:45:34.894Z,100357.97
2023-04-22T15:48:37.163Z,100361.63
2023-04-22T15:51:39.474Z,100351.94
2023-04-22T15:54:41.823Z,100357.22
2023-04-22T15:57:44.122Z,100350.56
2023-04-22T16:00:46.744Z,100359.09
2023-04-22T16:03:49.497Z,100347.06
2023-04-22T16:06:51.975Z,100351.09
2023-04-22T16:09:54.434Z,100345.84
2023-04-22T16:12:56.759Z,100345.28
2023-04-22T16:15:59.203Z,100348.69
2023-04-22T16:19:01.643Z,100338.22
2023-04-22T16:22:04.014Z,100339.44
2023-04-22T16:25:07.054Z,100338.31
2023-04-22T16:28:10.533Z,100332.75
2023-04-22T16:31:13.848Z,100333.25
2023-04-22T16:34:16.295Z,100326.75
2023-04-22T16:37:18.992Z,100326.69
2023-04-22T16:40:21.363Z,100307.97
2023-04-22T16:43:23.863Z,100330.66
2023-04-22T16:46:26.296Z,100325.50
2023-04-22T16:49:28.687Z,100334.50
2023-04-22T16:52:31.298Z,100330.00
2023-04-22T16:55:36.316Z,100328.91
2023-04-22T16:58:39.232Z,100323.09
2023-04-22T17:01:42.263Z,100315.53
2023-04-22T17:04:44.796Z,100323.78
2023-04-22T17:07:47.121Z,100320.41
2023-04-22T17:10:49.473Z,100313.75
2023-04-22T17:13:52.100Z,100314.56
2023-04-22T17:16:54.725Z,100320.19
2023-04-22T17:19:57.162Z,100311.13
2023-04-22T17:22:59.593Z,100314.53
2023-04-22T17:26:02.170Z,100314.81
2023-04-22T17:29:04.625Z,100314.44
2023-04-22T17:32:07.167Z,100321.81
2023-04-22T17:35:10.480Z,100316.25
2023-04-22T17:38:14.192Z,100319.88
2023-04-22T17:41:18.627Z,100318.84
2023-04-22T17:44:21.937Z,100315.94
2023-04-22T17:47:24.772Z,100311.16
2023-04-22T17:50:27.146Z,100312.59
2023-04-22T17:53:29.583Z,100321.00
2023-04-22T17:56:32.009Z,100322.88
2023-04-22T17:59:34.597Z,100316.88
2023-04-22T18:02:37.077Z,100318.41
2023-04-22T18:05:43.238Z,100319.94
2023-04-22T18:08:45.812Z,100328.91
2023-04-22T18:11:48.248Z,100329.44
2023-04-22T18:14:50.783Z,100323.53
2023-04-22T18:17:53.357Z,100331.50
2023-04-22T18:20:55.756Z,100325.59
2023-04-22T18:23:58.662Z,100331.00
2023-04-22T18:27:01.364Z,100334.00
2023-04-22T18:30:04.075Z,100339.38
2023-04-22T18:33:06.661Z,100329.03
2023-04-22T18:36:09.344Z,100334.56
2023-04-22T18:39:11.872Z,100341.66
2023-04-22T18:42:14.235Z,100345.16
2023-04-22T18:45:16.957Z,100345.69
2023-04-22T18:48:20.417Z,100335.41
2023-04-22T18:51:22.890Z,100345.72
2023-04-22T18:54:25.564Z,100344.47
2023-04-22T18:57:27.965Z,100348.13
2023-04-22T19:00:30.539Z,100344.22
2023-04-22T19:03:33.067Z,100341.84
2023-04-22T19:06:35.656Z,100348.41
2023-04-22T19:09:38.205Z,100303.88
2023-04-22T19:12:41.764Z,100334.78
2023-04-22T19:15:44.198Z,100336.34
2023-04-22T19:18:46.560Z,100336.66
2023-04-22T19:21:48.833Z,100336.66
2023-04-22T19:24:51.461Z,100337.59
2023-04-22T19:27:53.930Z,100322.38
2023-04-22T19:30:56.228Z,100321.16
2023-04-22T19:33:58.744Z,100327.53
2023-04-22T19:37:03.005Z,100327.16
2023-04-22T19:40:05.708Z,100323.28
2023-04-22T19:43:08.135Z,100311.03
2023-04-22T19:46:10.559Z,100321.16
2023-04-22T19:49:13.442Z,100315.22
2023-04-22T19:52:16.320Z,100312.59
2023-04-22T19:55:19.782Z,100321.31
2023-04-22T19:58:22.436Z,100311.88
2023-04-22T20:01:25.163Z,100314.09
2023-04-22T20:04:28.122Z,100311.38
2023-04-22T20:07:31.428Z,100313.56
2023-04-22T20:10:34.004Z,100317.41
2023-04-22T20:13:36.619Z,100314.66
2023-04-22T20:16:39.479Z,100315.25
2023-04-22T20:19:42.094Z,100315.00
2023-04-22T20:22:46.454Z,100308.66
2023-04-22T20:25:49.659Z,100314.09
2023-04-22T20:28:53.272Z,100301.53
2023-04-22T20:31:56.185Z,100298.03
2023-04-22T20:34:58.928Z,100301.00
2023-04-22T20:38:02.709Z,100304.84
2023-04-22T20:41:06.254Z,100298.88
2023-04-22T20:44:08.649Z,100302.16
2023-04-22T20:47:11.432Z,100308.19
2023-04-22T20:50:14.064Z,100298.72
2023-04-22T20:53:16.625Z,100298.19
2023-04-22T20:56:21.518Z,100287.09
2023-04-22T20:59:24.019Z,100298.50
2023-04-22T21:02:26.982Z,100298.81
2023-04-22T21:05:29.504Z,100295.81
2023-04-22T21:08:33.509Z,100290.91
2023-04-22T21:11:36.307Z,100277.84
2023-04-22T21:14:43.167Z,100291.75
2023-04-22T21:17:52.050Z,100291.75
2023-04-22T21:20:57.106Z,100285.75
2023-04-22T21:24:01.453Z,100274.59
2023-04-22T21:27:03.834Z,100287.69
2023-04-22T21:30:06.985Z,100278.44
2023-04-22T21:33:09.363Z,100286.84
2023-04-22T21:36:11.730Z,100279.25
2023-04-22T21:39:14.417Z,100282.25
2023-04-22T21:42:16.707Z,100291.50
2023-04-22T21:45:19.198Z,100285.78
2023-04-22T21:48:21.486Z,100287.41
2023-04-22T21:51:23.880Z,100286.34
2023-04-22T21:54:26.232Z,100289.59
2023-04-22T21:57:28.583Z,100293.13
2023-04-22T22:00:31.838Z,100283.31
2023-04-22T22:03:36.320Z,100282.50
2023-04-22T22:06:38.882Z,100290.13
2023-04-22T22:09:43.897Z,100290.69
2023-04-22T22:12:47.091Z,100286.03
2023-04-22T22:15:49.696Z,100283.59
2023-04-22T22:18:52.365Z,100284.94
2023-04-22T22:21:54.689Z,100283.56
2023-04-22T22:24:57.060Z,100286.03
2023-04-22T22:27:59.698Z,100280.34
2023-04-22T22:31:02.356Z,100278.69
2023-04-22T22:34:04.661Z,100284.97
2023-04-22T22:37:07.110Z,100282.81
2023-04-22T22:40:10.236Z,100280.91
2023-04-22T22:43:13.617Z,100283.88
2023-04-22T22:46:16.102Z,100284.97
2023-04-22T22:49:18.469Z,100275.69
2023-04-22T22:52:20.944Z,100276.28
2023-04-22T22:55:23.344Z,100278.41
2023-04-22T22:58:26.015Z,100278.69
2023-04-22T23:01:28.486Z,100276.78
2023-04-22T23:04:31.022Z,100279.75
2023-04-22T23:07:34.054Z,100277.63
2023-04-22T23:10:36.378Z,100266.72
2023-04-22T23:13:38.795Z,100263.72
2023-04-22T23:16:41.170Z,100263.97
2023-04-22T23:19:44.807Z,100266.13
2023-04-22T23:22:48.635Z,100269.69
2023-04-22T23:25:51.559Z,100263.72
2023-04-22T23:28:54.070Z,100258.84
2023-04-22T23:31:56.535Z,100248.78
2023-04-22T23:35:01.990Z,100250.13
2023-04-22T23:38:04.831Z,100245.75
2023-04-22T23:41:07.156Z,100256.63
2023-04-22T23:44:09.490Z,100263.75
2023-04-22T23:47:12.984Z,100246.84
2023-04-22T23:50:16.368Z,100253.38
2023-04-22T23:53:18.771Z,100246.25
2023-04-22T23:56:22.945Z,100244.91
2023-04-22T23:59:25.666Z,100243.03
